createdAt,value
2023-03-12T00:02:24.216Z,10.15
2023-03-12T00:04:50.786Z,11.80
2023-03-12T00:07:17.295Z,9.98
2023-03-12T00:09:43.902Z,9.10
2023-03-12T00:12:10.436Z,10.20
2023-03-12T00:14:37.283Z,9.52
2023-03-12T00:17:03.838Z,10.57
2023-03-12T00:19:30.388Z,11.00
2023-03-12T00:21:56.900Z,9.32
2023-03-12T00:24:23.407Z,10.80
2023-03-12T00:26:49.875Z,11.35
2023-03-12T00:29:16.385Z,8.82
2023-03-12T00:31:42.994Z,10.23
2023-03-12T00:34:09.764Z,10.13
2023-03-12T00:36:36.463Z,10.50
2023-03-12T00:39:03.080Z,13.32
2023-03-12T00:41:30.402Z,11.23
2023-03-12T00:44:02.397Z,9.60
2023-03-12T00:46:29.294Z,10.30
2023-03-12T00:48:55.846Z,10.80
2023-03-12T00:51:22.528Z,9.80
2023-03-12T00:53:49.148Z,10.32
2023-03-12T00:56:15.719Z,9.48
2023-03-12T00:58:43.207Z,10.70
2023-03-12T01:01:10.168Z,9.73
2023-03-12T01:03:36.900Z,11.02
2023-03-12T01:06:03.838Z,11.25
2023-03-12T01:08:58.740Z,10.23
2023-03-12T01:11:25.235Z,13.38
2023-03-12T01:13:51.767Z,12.02
2023-03-12T01:16:28.083Z,9.30
2023-03-12T01:18:57.237Z,10.45
2023-03-12T01:21:27.901Z,9.43
2023-03-12T01:23:56.143Z,9.20
2023-03-12T01:26:23.353Z,9.75
2023-03-12T01:28:50.876Z,9.48
2023-03-12T01:31:19.587Z,11.82
2023-03-12T01:33:51.215Z,11.77
2023-03-12T01:36:28.092Z,9.30
2023-03-12T01:38:58.933Z,9.18
2023-03-12T01:41:29.819Z,9.32
2023-03-12T01:43:56.649Z,8.50
2023-03-12T01:46:32.286Z,8.93
2023-03-12T01:49:29.924Z,9.15
2023-03-12T01:52:09.346Z,11.35
2023-03-12T01:54:42.991Z,11.70
2023-03-12T01:57:26.574Z,8.68
2023-03-12T02:00:01.110Z,10.05
2023-03-12T02:02:29.806Z,12.70
2023-03-12T02:05:31.016Z,9.63
2023-03-12T02:07:58.332Z,10.38
2023-03-12T02:10:26.379Z,9.82
2023-03-12T02:12:53.666Z,10.48
2023-03-12T02:15:20.344Z,7.88
2023-03-12T02:17:46.928Z,8.20
2023-03-12T02:21:01.779Z,9.45
2023-03-12T02:24:00.668Z,9.30
2023-03-12T02:26:29.945Z,8.05
2023-03-12T02:28:59.873Z,8.35
2023-03-12T02:31:37.563Z,7.57
2023-03-12T02:34:04.135Z,7.68
2023-03-12T02:36:30.628Z,9.20
2023-03-12T02:38:57.533Z,8.50
2023-03-12T02:41:37.400Z,7.97
2023-03-12T02:44:11.443Z,9.55
2023-03-12T02:46:46.556Z,8.93
2023-03-12T02:49:14.197Z,7.85
2023-03-12T02:51:44.284Z,11.57
2023-03-12T02:54:13.292Z,10.43
2023-03-12T02:56:41.007Z,13.27
2023-03-12T02:59:10.089Z,12.48
2023-03-12T03:01:37.149Z,10.50
2023-03-12T03:04:06.810Z,9.80
2023-03-12T03:06:36.226Z,7.35
2023-03-12T03:09:03.698Z,7.93
2023-03-12T03:11:30.262Z,8.70
2023-03-12T03:13:57.022Z,8.30
2023-03-12T03:16:24.621Z,10.40
2023-03-12T03:18:52.027Z,10.02
2023-03-12T03:21:18.721Z,10.45
2023-03-12T03:23:50.535Z,10.25
2023-03-12T03:26:21.714Z,9.68
2023-03-12T03:28:48.882Z,12.32
2023-03-12T03:31:15.876Z,10.45
2023-03-12T03:33:42.934Z,9.68
2023-03-12T03:36:10.586Z,8.05
2023-03-12T03:38:37.383Z,10.45
2023-03-12T03:41:04.286Z,7.80
2023-03-12T03:43:30.867Z,9.10
2023-03-12T03:46:05.830Z,7.40
2023-03-12T03:48:33.373Z,8.32
2023-03-12T03:51:02.791Z,9.88
2023-03-12T03:53:29.514Z,7.93
2023-03-12T03:55:56.057Z,8.45
2023-03-12T03:58:23.147Z,11.45
2023-03-12T04:00:49.902Z,7.30
2023-03-12T04:03:16.515Z,8.40
2023-03-12T04:05:45.152Z,9.27
2023-03-12T04:08:14.877Z,8.02
2023-03-12T04:10:41.467Z,9.77
2023-03-12T04:13:08.035Z,10.63
2023-03-12T04:15:34.551Z,8.38
2023-03-12T04:18:01.014Z,8.68
2023-03-12T04:20:27.577Z,7.97
2023-03-12T04:22:54.070Z,10.20
2023-03-12T04:25:20.564Z,9.40
2023-03-12T04:27:47.077Z,10.48
2023-03-12T04:30:14.253Z,9.13
2023-03-12T04:32:40.745Z,8.85
2023-03-12T04:35:07.640Z,8.07
2023-03-12T04:37:34.271Z,7.13
2023-03-12T04:40:04.696Z,9.38
2023-03-12T04:42:31.412Z,7.60
2023-03-12T04:44:57.892Z,9.57
2023-03-12T04:47:24.375Z,7.90
2023-03-12T04:49:50.846Z,8.38
2023-03-12T04:52:17.694Z,9.43
2023-03-12T04:54:47.524Z,7.63
2023-03-12T04:57:14.569Z,6.45
2023-03-12T04:59:41.074Z,10.50
2023-03-12T05:02:07.736Z,10.00
2023-03-12T05:04:34.250Z,7.82
2023-03-12T05:07:00.934Z,8.68
2023-03-12T05:09:27.640Z,7.35
2023-03-12T05:11:54.273Z,7.47
2023-03-12T05:14:21.044Z,9.63
2023-03-12T05:16:47.585Z,9.30
2023-03-12T05:19:14.992Z,8.80
2023-03-12T05:21:44.569Z,9.60
2023-03-12T05:24:11.851Z,10.52
2023-03-12T05:26:40.037Z,8.98
2023-03-12T05:29:06.691Z,10.45
2023-03-12T05:31:35.289Z,10.23
2023-03-12T05:34:04.126Z,7.43
2023-03-12T05:36:30.773Z,8.07
2023-03-12T05:38:57.566Z,12.68
2023-03-12T05:41:29.202Z,9.70
2023-03-12T05:43:57.547Z,10.10
2023-03-12T05:46:27.520Z,7.68
2023-03-12T05:48:54.467Z,7.90
2023-03-12T05:51:21.584Z,8.32
2023-03-12T05:53:48.185Z,8.15
2023-03-12T05:56:17.538Z,7.43
2023-03-12T05:58:47.261Z,11.00
2023-03-12T06:01:24.963Z,6.88
2023-03-12T06:03:51.477Z,8.57
2023-03-12T06:06:18.796Z,7.63
2023-03-12T06:08:46.052Z,6.57
2023-03-12T06:11:13.238Z,7.03
2023-03-12T06:13:40.376Z,7.28
2023-03-12T06:16:25.675Z,9.75
2023-03-12T06:19:02.591Z,8.27
2023-03-12T06:21:33.431Z,7.72
2023-03-12T06:24:01.034Z,6.65
2023-03-12T06:26:28.848Z,7.20
2023-03-12T06:28:55.762Z,7.45
2023-03-12T06:31:23.203Z,8.23
2023-03-12T06:33:50.194Z,9.95
2023-03-12T06:36:17.055Z,6.00
2023-03-12T06:38:43.689Z,8.10
2023-03-12T06:41:17.687Z,4.82
2023-03-12T06:43:45.689Z,6.85
2023-03-12T06:46:21.602Z,5.68
2023-03-12T06:48:48.697Z,6.28
2023-03-12T06:51:17.436Z,5.57
2023-03-12T06:53:45.971Z,4.15
2023-03-12T06:56:14.113Z,7.35
2023-03-12T06:58:41.845Z,3.72
2023-03-12T07:01:09.028Z,3.45
2023-03-12T07:03:35.805Z,3.75
2023-03-12T07:06:02.808Z,4.57
2023-03-12T07:08:30.993Z,6.28
2023-03-12T07:11:01.638Z,9.32
2023-03-12T07:13:28.740Z,4.35
2023-03-12T07:15:55.330Z,4.32
2023-03-12T07:18:22.220Z,6.13
2023-03-12T07:20:48.820Z,3.88
2023-03-12T07:23:15.415Z,6.47
2023-03-12T07:25:43.588Z,4.03
2023-03-12T07:28:12.545Z,4.70
2023-03-12T07:30:40.136Z,5.85
2023-03-12T07:33:12.472Z,6.03
2023-03-12T07:35:39.965Z,3.95
2023-03-12T07:38:08.034Z,6.85
2023-03-12T07:40:36.391Z,5.80
2023-03-12T07:43:06.826Z,5.78
2023-03-12T07:45:33.369Z,5.40
2023-03-12T07:47:59.863Z,4.65
2023-03-12T07:50:26.427Z,4.57
2023-03-12T07:52:52.950Z,4.90
2023-03-12T07:55:19.678Z,3.15
2023-03-12T07:57:46.797Z,5.15
2023-03-12T08:00:15.317Z,3.95
2023-03-12T08:02:41.968Z,3.65
2023-03-12T08:05:08.819Z,4.20
2023-03-12T08:07:35.928Z,5.25
2023-03-12T08:10:06.711Z,6.53
2023-03-12T08:12:34.101Z,15.13
2023-03-12T08:15:00.595Z,5.18
2023-03-12T08:17:27.093Z,8.05
2023-03-12T08:19:54.161Z,5.05
2023-03-12T08:22:20.727Z,4.72
2023-03-12T08:24:47.667Z,3.80
2023-03-12T08:27:14.290Z,4.45
2023-03-12T08:29:41.937Z,6.13
2023-03-12T08:32:10.802Z,6.18
2023-03-12T08:34:38.013Z,5.60
2023-03-12T08:37:05.911Z,4.22
2023-03-12T08:39:33.222Z,4.10
2023-03-12T08:42:00.110Z,4.47
2023-03-12T08:44:27.045Z,5.10
2023-03-12T08:46:53.701Z,4.50
2023-03-12T08:49:21.691Z,3.40
2023-03-12T08:51:48.847Z,6.00
2023-03-12T08:54:15.404Z,5.22
2023-03-12T08:56:43.462Z,3.60
2023-03-12T08:59:13.798Z,5.38
2023-03-12T09:01:43.604Z,4.35
2023-03-12T09:04:10.837Z,4.18
2023-03-12T09:06:38.383Z,3.55
2023-03-12T09:09:05.640Z,4.13
2023-03-12T09:11:34.652Z,5.93
2023-03-12T09:14:42.444Z,4.90
2023-03-12T09:16:49.788Z,5.50
2023-03-12T09:19:16.702Z,2.97
2023-03-12T09:21:43.517Z,4.90
2023-03-12T09:24:11.475Z,4.90
2023-03-12T09:26:38.001Z,4.40
2023-03-12T09:29:04.691Z,2.78
2023-03-12T09:31:31.642Z,3.35
2023-03-12T09:33:58.136Z,3.75
2023-03-12T09:36:24.619Z,3.17
2023-03-12T09:38:51.133Z,3.47
2023-03-12T09:41:23.195Z,3.30
2023-03-12T09:44:09.147Z,4.78
2023-03-12T09:46:48.391Z,3.85
2023-03-12T09:49:35.164Z,4.07
2023-03-12T09:52:16.420Z,3.38
2023-03-12T09:54:58.927Z,4.57
2023-03-12T09:57:28.913Z,3.08
2023-03-12T09:59:56.961Z,3.95
2023-03-12T10:02:43.522Z,5.45
2023-03-12T10:05:26.422Z,4.72
2023-03-12T10:08:17.486Z,7.43
2023-03-12T10:11:08.469Z,3.17
2023-03-12T10:14:16.115Z,3.78
2023-03-12T10:17:08.654Z,3.20
2023-03-12T10:20:20.497Z,3.13
2023-03-12T10:23:04.659Z,2.85
2023-03-12T10:25:48.119Z,3.00
2023-03-12T10:28:26.035Z,2.88
2023-03-12T10:30:59.348Z,4.82
2023-03-12T10:33:42.544Z,2.90
2023-03-12T10:36:19.792Z,2.45
2023-03-12T10:38:48.611Z,2.30
2023-03-12T10:41:26.419Z,2.97
2023-03-12T10:43:54.780Z,2.67
2023-03-12T10:46:46.735Z,3.40
2023-03-12T10:49:22.064Z,3.53
2023-03-12T10:52:17.232Z,3.60
2023-03-12T10:54:48.012Z,3.10
2023-03-12T10:57:16.262Z,3.25
2023-03-12T10:59:47.640Z,4.97
2023-03-12T11:02:43.138Z,2.95
2023-03-12T11:05:25.880Z,3.10
2023-03-12T11:07:52.879Z,6.50
2023-03-12T11:10:45.636Z,4.63
2023-03-12T11:13:38.119Z,3.35
2023-03-12T11:16:16.612Z,3.08
2023-03-12T11:19:03.632Z,3.22
2023-03-12T11:21:37.001Z,2.28
2023-03-12T11:24:11.856Z,2.50
2023-03-12T11:26:50.303Z,3.50
2023-03-12T11:29:39.737Z,3.40
2023-03-12T11:32:15.632Z,2.60
2023-03-12T11:34:43.254Z,3.42
2023-03-12T11:37:38.129Z,3.42
2023-03-12T11:40:15.000Z,3.20
2023-03-12T11:43:43.656Z,2.57
2023-03-12T11:49:44.981Z,2.03
2023-03-12T11:52:55.998Z,3.28
2023-03-12T11:55:30.561Z,2.50
2023-03-12T11:58:37.917Z,2.80
2023-03-12T12:01:26.261Z,2.27
2023-03-12T12:04:45.046Z,2.42
2023-03-12T12:07:47.763Z,2.67
2023-03-12T12:10:47.982Z,2.35
2023-03-12T12:13:46.854Z,2.33
2023-03-12T12:16:37.548Z,2.63
2023-03-12T12:19:33.849Z,2.75
2023-03-12T12:22:25.477Z,4.00
2023-03-12T12:25:00.736Z,2.50
2023-03-12T12:27:36.759Z,3.03
2023-03-12T12:30:40.764Z,2.60
2023-03-12T12:33:39.880Z,3.10
2023-03-12T12:36:10.555Z,2.92
2023-03-12T12:38:44.235Z,2.70
2023-03-12T12:41:27.391Z,14.82
2023-03-12T12:44:01.225Z,5.10
2023-03-12T12:47:01.242Z,3.63
2023-03-12T12:49:49.150Z,12.80
2023-03-12T12:52:22.373Z,5.25
2023-03-12T12:55:11.653Z,3.70
2023-03-12T12:57:44.947Z,4.38
2023-03-12T13:00:25.858Z,3.10
2023-03-12T13:02:56.360Z,3.22
2023-03-12T13:05:52.681Z,5.68
2023-03-12T13:08:44.793Z,7.00
2023-03-12T13:11:20.330Z,3.65
2023-03-12T13:14:10.572Z,4.43
2023-03-12T13:16:45.528Z,4.88
2023-03-12T13:19:14.797Z,7.07
2023-03-12T13:22:10.069Z,5.55
2023-03-12T13:25:12.430Z,11.40
2023-03-12T13:27:42.689Z,7.93
2023-03-12T13:30:46.354Z,7.22
2023-03-12T13:33:18.121Z,4.65
2023-03-12T13:36:25.830Z,5.18
2023-03-12T13:39:29.256Z,3.80
2023-03-12T13:41:58.349Z,6.93
2023-03-12T13:44:27.539Z,27.65
2023-03-12T13:47:26.426Z,6.22
2023-03-12T13:49:58.695Z,6.45
2023-03-12T13:52:30.713Z,5.07
2023-03-12T13:55:24.934Z,10.77
2023-03-12T13:57:58.426Z,7.35
2023-03-12T14:00:37.659Z,4.82
2023-03-12T14:03:24.860Z,9.35
2023-03-12T14:08:47.968Z,9.45
2023-03-12T14:14:29.586Z,13.57
2023-03-12T14:17:00.504Z,6.45
2023-03-12T14:19:31.452Z,6.05
2023-03-12T14:22:06.186Z,15.55
2023-03-12T14:24:40.367Z,6.15
2023-03-12T14:27:17.633Z,10.75
2023-03-12T14:29:56.720Z,5.75
2023-03-12T14:32:39.119Z,9.20
2023-03-12T14:35:21.868Z,11.95
2023-03-12T14:38:05.146Z,14.13
2023-03-12T14:41:14.334Z,12.18
2023-03-12T14:43:43.581Z,13.07
2023-03-12T14:46:20.574Z,13.40
2023-03-12T14:48:50.523Z,16.27
2023-03-12T14:51:35.361Z,15.50
2023-03-12T14:54:03.344Z,18.25
2023-03-12T14:56:35.845Z,15.77
2023-03-12T14:59:33.097Z,13.82
2023-03-12T15:02:11.222Z,15.50
2023-03-12T15:04:38.263Z,15.63
2023-03-12T15:07:11.274Z,16.33
2023-03-12T15:09:38.067Z,16.35
2023-03-12T15:12:19.349Z,15.60
2023-03-12T15:14:47.653Z,13.55
2023-03-12T15:17:19.328Z,13.93
2023-03-12T15:19:47.527Z,19.48
2023-03-12T15:22:20.873Z,19.48
2023-03-12T15:24:48.031Z,15.00
2023-03-12T15:27:28.570Z,17.77
2023-03-12T15:29:58.380Z,23.25
2023-03-12T15:32:26.865Z,18.23
2023-03-12T15:34:59.111Z,22.63
2023-03-12T15:37:38.620Z,13.00
2023-03-12T15:40:23.087Z,11.00
2023-03-12T15:42:49.882Z,12.82
2023-03-12T15:45:43.499Z,12.13
2023-03-12T15:48:41.128Z,10.68
2023-03-12T15:51:36.275Z,11.95
2023-03-12T15:54:28.294Z,9.60
2023-03-12T15:57:10.894Z,14.18
2023-03-12T15:59:37.541Z,8.85
2023-03-12T16:02:04.288Z,13.32
2023-03-12T16:04:30.821Z,12.55
2023-03-12T16:06:57.284Z,10.80
2023-03-12T16:09:33.176Z,10.57
2023-03-12T16:11:59.649Z,11.30
2023-03-12T16:14:36.151Z,8.13
2023-03-12T16:17:02.821Z,7.78
2023-03-12T16:19:33.565Z,8.32
2023-03-12T16:22:00.081Z,8.20
2023-03-12T16:24:26.553Z,9.50
2023-03-12T16:26:58.871Z,8.65
2023-03-12T16:29:43.430Z,9.02
2023-03-12T16:32:16.893Z,10.40
2023-03-12T16:34:45.421Z,8.55
2023-03-12T16:37:12.993Z,8.52
2023-03-12T16:39:40.223Z,6.85
2023-03-12T16:42:17.350Z,7.63
2023-03-12T16:44:46.667Z,9.07
2023-03-12T16:47:14.560Z,5.57
2023-03-12T16:49:41.449Z,7.32
2023-03-12T16:52:20.827Z,6.78
2023-03-12T16:54:51.564Z,40.08
2023-03-12T16:57:32.456Z,46.58
2023-03-12T17:00:01.201Z,21.80
2023-03-12T17:02:29.689Z,14.38
2023-03-12T17:04:56.633Z,8.95
2023-03-12T17:07:23.528Z,8.80
2023-03-12T17:09:50.049Z,4.55
2023-03-12T17:12:36.195Z,11.27
2023-03-12T17:15:11.712Z,8.98
2023-03-12T17:17:38.311Z,8.80
2023-03-12T17:20:08.513Z,13.88
2023-03-12T17:22:34.990Z,23.27
2023-03-12T17:25:01.757Z,182.93
2023-03-12T17:27:28.728Z,29.88
2023-03-12T17:29:55.358Z,35.53
2023-03-12T17:32:21.967Z,24.23
2023-03-12T17:34:56.739Z,10.93
2023-03-12T17:37:23.395Z,17.55
2023-03-12T17:39:49.860Z,17.27
2023-03-12T17:42:16.508Z,35.75
2023-03-12T17:44:42.972Z,16.92
2023-03-12T17:47:09.488Z,16.92
2023-03-12T17:49:36.124Z,13.25
2023-03-12T17:52:03.214Z,11.52
2023-03-12T17:54:30.097Z,10.50
2023-03-12T17:56:56.584Z,10.00
2023-03-12T17:59:23.067Z,8.63
2023-03-12T18:01:49.522Z,9.82
2023-03-12T18:04:16.096Z,15.18
2023-03-12T18:06:42.620Z,10.48
2023-03-12T18:09:09.090Z,12.95
2023-03-12T18:11:35.533Z,11.48
2023-03-12T18:14:02.105Z,12.20
2023-03-12T18:16:28.892Z,10.20
2023-03-12T18:18:55.480Z,9.50
2023-03-12T18:21:22.036Z,10.20
2023-03-12T18:23:48.608Z,9.68
2023-03-12T18:26:15.135Z,12.93
2023-03-12T18:28:42.343Z,12.95
2023-03-12T18:31:09.628Z,12.85
2023-03-12T18:33:37.223Z,12.88
2023-03-12T18:36:04.946Z,9.43
2023-03-12T18:38:32.638Z,11.13
2023-03-12T18:41:05.319Z,12.30
2023-03-12T18:43:32.983Z,12.15
2023-03-12T18:45:59.458Z,12.88
2023-03-12T18:48:26.405Z,12.05
2023-03-12T18:50:53.536Z,16.50
2023-03-12T18:53:20.716Z,10.68
2023-03-12T18:55:58.305Z,11.15
2023-03-12T18:58:27.853Z,14.20
2023-03-12T19:00:56.911Z,19.30
2023-03-12T19:03:25.170Z,14.30
2023-03-12T19:06:10.777Z,11.52
2023-03-12T19:08:38.014Z,10.27
2023-03-12T19:11:08.289Z,11.70
2023-03-12T19:13:35.300Z,13.68
2023-03-12T19:16:05.956Z,78.85
2023-03-12T19:18:35.264Z,115.35
2023-03-12T19:21:02.391Z,433.65
2023-03-12T19:23:29.453Z,325.85
2023-03-12T19:25:55.983Z,190.20
2023-03-12T19:28:22.526Z,398.88
2023-03-12T19:30:49.215Z,251.73
2023-03-12T19:33:15.706Z,298.10
2023-03-12T19:35:42.926Z,257.40
2023-03-12T19:38:09.619Z,136.07
2023-03-12T19:40:36.151Z,421.63
2023-03-12T19:43:03.165Z,166.38
2023-03-12T19:45:29.956Z,309.60
2023-03-12T19:47:56.731Z,258.88
2023-03-12T19:50:24.036Z,38.47
2023-03-12T19:52:50.572Z,23.52
2023-03-12T19:55:17.401Z,26.60
2023-03-12T19:57:43.951Z,21.33
2023-03-12T20:00:12.124Z,15.20
2023-03-12T20:02:39.499Z,15.60
2023-03-12T20:05:07.866Z,16.95
2023-03-12T20:07:35.053Z,15.52
2023-03-12T20:10:01.676Z,16.30
2023-03-12T20:12:28.285Z,18.35
2023-03-12T20:14:54.870Z,12.05
2023-03-12T20:17:21.372Z,12.13
2023-03-12T20:19:47.855Z,16.02
2023-03-12T20:22:14.589Z,66.90
2023-03-12T20:24:41.262Z,33.78
2023-03-12T20:27:07.810Z,17.48
2023-03-12T20:29:34.321Z,13.25
2023-03-12T20:32:00.876Z,19.15
2023-03-12T20:34:27.427Z,16.98
2023-03-12T20:36:54.135Z,13.85
2023-03-12T20:39:20.837Z,18.02
2023-03-12T20:41:49.805Z,26.98
2023-03-12T20:44:16.858Z,15.48
2023-03-12T20:46:43.317Z,13.48
2023-03-12T20:49:10.083Z,12.70
2023-03-12T20:51:36.565Z,14.52
2023-03-12T20:54:03.174Z,16.02
2023-03-12T20:56:29.722Z,29.65
2023-03-12T20:58:57.105Z,21.50
2023-03-12T21:03:58.631Z,18.02
2023-03-12T21:06:26.031Z,13.73
2023-03-12T21:08:56.088Z,17.15
2023-03-12T21:11:22.909Z,13.73
2023-03-12T21:13:49.455Z,15.05
2023-03-12T21:16:16.060Z,15.45
2023-03-12T21:18:42.584Z,20.20
2023-03-12T21:21:09.356Z,12.38
2023-03-12T21:23:36.936Z,11.77
2023-03-12T21:26:09.251Z,14.13
2023-03-12T21:28:36.185Z,13.18
2023-03-12T21:31:13.436Z,12.82
2023-03-12T21:33:40.126Z,12.23
2023-03-12T21:36:10.996Z,14.77
2023-03-12T21:38:39.453Z,9.68
2023-03-12T21:41:17.007Z,13.23
2023-03-12T21:43:45.332Z,13.23
2023-03-12T21:46:19.483Z,14.27
2023-03-12T21:48:48.128Z,12.10
2023-03-12T21:51:17.766Z,12.43
2023-03-12T21:53:44.458Z,13.55
2023-03-12T21:56:11.817Z,15.35
2023-03-12T21:58:38.592Z,15.50
2023-03-12T22:01:18.602Z,11.73
2023-03-12T22:03:46.262Z,17.30
2023-03-12T22:06:15.304Z,13.02
2023-03-12T22:08:43.539Z,14.35
2023-03-12T22:11:10.546Z,31.83
2023-03-12T22:13:37.936Z,16.00
2023-03-12T22:16:08.251Z,24.83
2023-03-12T22:18:40.761Z,18.92
2023-03-12T22:21:08.966Z,13.82
2023-03-12T22:23:37.061Z,13.85
2023-03-12T22:26:07.830Z,9.95
2023-03-12T22:28:35.064Z,12.65
2023-03-12T22:31:07.942Z,13.02
2023-03-12T22:33:36.422Z,14.00
2023-03-12T22:36:10.091Z,16.73
2023-03-12T22:38:38.191Z,11.10
2023-03-12T22:41:31.336Z,15.05
2023-03-12T22:44:04.968Z,11.77
2023-03-12T22:46:31.948Z,11.55
2023-03-12T22:49:01.679Z,12.10
2023-03-12T22:51:31.474Z,11.73
2023-03-12T22:53:58.085Z,11.60
2023-03-12T22:56:24.836Z,10.98
2023-03-12T22:58:51.584Z,10.88
2023-03-12T23:01:21.089Z,11.57
2023-03-12T23:03:48.703Z,11.93
2023-03-12T23:06:25.386Z,16.13
2023-03-12T23:08:54.722Z,12.45
2023-03-12T23:11:25.036Z,15.52
2023-03-12T23:13:52.625Z,10.88
2023-03-12T23:16:23.074Z,14.18
2023-03-12T23:18:50.162Z,9.65
2023-03-12T23:21:21.232Z,14.48
2023-03-12T23:23:48.811Z,12.75
2023-03-12T23:26:20.087Z,13.77
2023-03-12T23:28:47.445Z,10.48
2023-03-12T23:31:17.552Z,13.40
2023-03-12T23:33:44.878Z,10.77
2023-03-12T23:36:15.861Z,9.18
2023-03-12T23:38:43.279Z,11.82
2023-03-12T23:41:17.044Z,12.05
2023-03-12T23:43:44.614Z,16.40
2023-03-12T23:46:13.318Z,15.20
2023-03-12T23:48:40.986Z,9.88
2023-03-12T23:51:17.237Z,14.02
2023-03-12T23:53:48.226Z,9.38
2023-03-12T23:56:19.601Z,13.38
2023-03-12T23:58:48.056Z,11.38
